sensor_id;sensor_type;location;lat;lon;timestamp;pressure;altitude;pressure_sealevel;temperature;humidity
61537;BME280;48695;53.480;-6.300;2023-08-01T00:01:50;99477.44;;;16.44;75.41
61537;BME280;48695;53.480;-6.300;2023-08-01T00:04:16;99471.63;;;16.39;74.93
61537;BME280;48695;53.480;-6.300;2023-08-01T00:06:41;99479.53;;;16.39;75.14
61537;BME280;48695;53.480;-6.300;2023-08-01T00:09:07;99499.22;;;16.33;75.33
61537;BME280;48695;53.480;-6.300;2023-08-01T00:11:32;99480.25;;;16.28;75.44
61537;BME280;48695;53.480;-6.300;2023-08-01T00:13:58;99479.69;;;16.23;75.40
61537;BME280;48695;53.480;-6.300;2023-08-01T00:16:23;99480.72;;;16.20;75.35
61537;BME280;48695;53.480;-6.300;2023-08-01T00:18:49;99489.69;;;16.18;75.42
61537;BME280;48695;53.480;-6.300;2023-08-01T00:21:15;99494.31;;;16.14;75.34
61537;BME280;48695;53.480;-6.300;2023-08-01T00:23:40;99494.47;;;16.11;75.36
61537;BME280;48695;53.480;-6.300;2023-08-01T00:26:06;99490.94;;;16.12;76.31
61537;BME280;48695;53.480;-6.300;2023-08-01T00:28:31;99499.97;;;16.08;75.48
61537;BME280;48695;53.480;-6.300;2023-08-01T00:31:07;99492.81;;;16.10;76.08
61537;BME280;48695;53.480;-6.300;2023-08-01T00:33:36;99492.38;;;16.03;75.91
61537;BME280;48695;53.480;-6.300;2023-08-01T00:36:02;99501.00;;;16.05;75.95
61537;BME280;48695;53.480;-6.300;2023-08-01T00:38:28;99494.88;;;16.05;75.82
61537;BME280;48695;53.480;-6.300;2023-08-01T00:40:53;99479.88;;;15.93;75.21
61537;BME280;48695;53.480;-6.300;2023-08-01T00:43:19;99498.66;;;16.01;76.01
61537;BME280;48695;53.480;-6.300;2023-08-01T00:45:45;99496.13;;;15.99;75.42
61537;BME280;48695;53.480;-6.300;2023-08-01T00:48:11;99472.75;;;15.80;75.57
61537;BME280;48695;53.480;-6.300;2023-08-01T00:50:38;99477.72;;;15.85;75.65
61537;BME280;48695;53.480;-6.300;2023-08-01T00:53:04;99496.81;;;15.89;75.61
61537;BME280;48695;53.480;-6.300;2023-08-01T00:55:30;99508.84;;;15.93;75.53
61537;BME280;48695;53.480;-6.300;2023-08-01T00:57:57;99509.81;;;15.92;75.98
61537;BME280;48695;53.480;-6.300;2023-08-01T01:00:23;99510.72;;;15.91;76.07
61537;BME280;48695;53.480;-6.300;2023-08-01T01:02:48;99514.19;;;15.91;76.42
61537;BME280;48695;53.480;-6.300;2023-08-01T01:05:14;99517.03;;;15.88;76.26
61537;BME280;48695;53.480;-6.300;2023-08-01T01:07:41;99520.34;;;15.92;76.46
61537;BME280;48695;53.480;-6.300;2023-08-01T01:10:06;99516.75;;;15.93;76.10
61537;BME280;48695;53.480;-6.300;2023-08-01T01:12:32;99524.53;;;15.94;76.74
61537;BME280;48695;53.480;-6.300;2023-08-01T01:14:57;99520.97;;;15.95;76.79
61537;BME280;48695;53.480;-6.300;2023-08-01T01:17:23;99525.19;;;15.98;76.53
61537;BME280;48695;53.480;-6.300;2023-08-01T01:19:48;99525.94;;;16.00;76.53
61537;BME280;48695;53.480;-6.300;2023-08-01T01:22:14;99517.94;;;16.01;76.74
61537;BME280;48695;53.480;-6.300;2023-08-01T01:24:42;99506.56;;;16.01;76.54
61537;BME280;48695;53.480;-6.300;2023-08-01T01:27:08;99510.69;;;16.05;76.57
61537;BME280;48695;53.480;-6.300;2023-08-01T01:29:34;99502.78;;;16.05;77.11
61537;BME280;48695;53.480;-6.300;2023-08-01T01:32:01;99499.13;;;16.07;76.97
61537;BME280;48695;53.480;-6.300;2023-08-01T01:34:28;99497.22;;;16.09;77.67
61537;BME280;48695;53.480;-6.300;2023-08-01T01:36:53;99454.16;;;15.83;76.64
61537;BME280;48695;53.480;-6.300;2023-08-01T01:39:18;99492.81;;;16.10;76.94
61537;BME280;48695;53.480;-6.300;2023-08-01T01:41:44;99495.44;;;16.10;76.88
61537;BME280;48695;53.480;-6.300;2023-08-01T01:44:09;99490.16;;;16.10;76.79
61537;BME280;48695;53.480;-6.300;2023-08-01T01:46:35;99490.28;;;16.08;76.15
61537;BME280;48695;53.480;-6.300;2023-08-01T01:49:00;99480.16;;;16.02;76.35
61537;BME280;48695;53.480;-6.300;2023-08-01T01:51:26;99488.50;;;16.09;76.46
61537;BME280;48695;53.480;-6.300;2023-08-01T01:53:52;99482.50;;;16.07;76.24
61537;BME280;48695;53.480;-6.300;2023-08-01T01:56:18;99486.88;;;16.06;76.54
61537;BME280;48695;53.480;-6.300;2023-08-01T01:58:43;99486.25;;;16.03;76.30
61537;BME280;48695;53.480;-6.300;2023-08-01T02:01:08;99479.31;;;16.02;76.08
61537;BME280;48695;53.480;-6.300;2023-08-01T02:03:34;99480.16;;;16.02;76.34
61537;BME280;48695;53.480;-6.300;2023-08-01T02:06:01;99477.81;;;15.98;76.23
61537;BME280;48695;53.480;-6.300;2023-08-01T02:08:28;99476.31;;;15.94;75.55
61537;BME280;48695;53.480;-6.300;2023-08-01T02:10:53;99486.00;;;15.93;75.54
61537;BME280;48695;53.480;-6.300;2023-08-01T02:13:20;99485.34;;;15.90;75.25
61537;BME280;48695;53.480;-6.300;2023-08-01T02:15:45;99469.84;;;15.85;75.53
61537;BME280;48695;53.480;-6.300;2023-08-01T02:18:11;99473.53;;;15.82;75.73
61537;BME280;48695;53.480;-6.300;2023-08-01T02:20:36;99461.91;;;15.72;75.23
61537;BME280;48695;53.480;-6.300;2023-08-01T02:23:03;99481.06;;;15.74;75.31
61537;BME280;48695;53.480;-6.300;2023-08-01T02:25:28;99491.78;;;15.71;75.60
61537;BME280;48695;53.480;-6.300;2023-08-01T02:27:53;99492.94;;;15.67;75.20
61537;BME280;48695;53.480;-6.300;2023-08-01T02:30:19;99494.78;;;15.65;75.37
61537;BME280;48695;53.480;-6.300;2023-08-01T02:32:44;99482.16;;;15.56;75.46
61537;BME280;48695;53.480;-6.300;2023-08-01T02:35:10;99496.94;;;15.58;75.62
61537;BME280;48695;53.480;-6.300;2023-08-01T02:37:35;99493.56;;;15.56;75.63
61537;BME280;48695;53.480;-6.300;2023-08-01T02:40:05;99484.56;;;15.46;75.58
61537;BME280;48695;53.480;-6.300;2023-08-01T02:42:33;99491.41;;;15.49;75.59
61537;BME280;48695;53.480;-6.300;2023-08-01T02:44:58;99493.28;;;15.47;75.34
61537;BME280;48695;53.480;-6.300;2023-08-01T02:47:24;99498.72;;;15.44;75.13
61537;BME280;48695;53.480;-6.300;2023-08-01T02:49:49;99485.19;;;15.36;75.25
61537;BME280;48695;53.480;-6.300;2023-08-01T02:52:14;99494.69;;;15.38;75.64
61537;BME280;48695;53.480;-6.300;2023-08-01T02:54:40;99486.97;;;15.35;75.49
61537;BME280;48695;53.480;-6.300;2023-08-01T02:57:05;99494.25;;;15.31;75.15
61537;BME280;48695;53.480;-6.300;2023-08-01T02:59:31;99492.53;;;15.30;75.29
61537;BME280;48695;53.480;-6.300;2023-08-01T03:01:58;99505.97;;;15.26;75.62
61537;BME280;48695;53.480;-6.300;2023-08-01T03:04:24;99506.06;;;15.24;75.79
61537;BME280;48695;53.480;-6.300;2023-08-01T03:06:49;99500.06;;;15.22;75.96
61537;BME280;48695;53.480;-6.300;2023-08-01T03:09:15;99500.22;;;15.19;75.94
61537;BME280;48695;53.480;-6.300;2023-08-01T03:11:41;99503.97;;;15.15;75.73
61537;BME280;48695;53.480;-6.300;2023-08-01T03:14:06;99511.59;;;15.20;76.09
61537;BME280;48695;53.480;-6.300;2023-08-01T03:16:32;99509.06;;;15.18;76.29
61537;BME280;48695;53.480;-6.300;2023-08-01T03:18:57;99500.44;;;15.16;75.79
61537;BME280;48695;53.480;-6.300;2023-08-01T03:21:25;99491.22;;;15.09;76.00
61537;BME280;48695;53.480;-6.300;2023-08-01T03:23:51;99499.75;;;15.13;75.80
61537;BME280;48695;53.480;-6.300;2023-08-01T03:26:17;99504.19;;;15.12;75.94
61537;BME280;48695;53.480;-6.300;2023-08-01T03:28:43;99510.38;;;15.11;75.82
61537;BME280;48695;53.480;-6.300;2023-08-01T03:31:09;99504.34;;;15.09;75.99
61537;BME280;48695;53.480;-6.300;2023-08-01T03:33:34;99501.84;;;15.08;76.00
61537;BME280;48695;53.480;-6.300;2023-08-01T03:36:00;99491.41;;;15.06;75.67
61537;BME280;48695;53.480;-6.300;2023-08-01T03:38:25;99493.19;;;15.05;75.90
61537;BME280;48695;53.480;-6.300;2023-08-01T03:40:50;99494.22;;;15.03;76.23
61537;BME280;48695;53.480;-6.300;2023-08-01T03:43:16;99497.59;;;15.05;76.35
61537;BME280;48695;53.480;-6.300;2023-08-01T03:45:41;99489.69;;;15.05;76.48
61537;BME280;48695;53.480;-6.300;2023-08-01T03:48:07;99483.59;;;15.04;76.20
61537;BME280;48695;53.480;-6.300;2023-08-01T03:50:32;99484.53;;;15.03;76.50
61537;BME280;48695;53.480;-6.300;2023-08-01T03:52:58;99476.75;;;15.02;76.28
61537;BME280;48695;53.480;-6.300;2023-08-01T03:55:23;99487.06;;;15.05;76.39
61537;BME280;48695;53.480;-6.300;2023-08-01T03:57:48;99477.59;;;15.02;76.43
61537;BME280;48695;53.480;-6.300;2023-08-01T04:00:14;99497.59;;;15.05;76.56
61537;BME280;48695;53.480;-6.300;2023-08-01T04:02:42;99506.03;;;15.10;76.87
61537;BME280;48695;53.480;-6.300;2023-08-01T04:05:08;99504.47;;;15.08;76.74
61537;BME280;48695;53.480;-6.300;2023-08-01T04:07:35;99506.03;;;15.10;77.04
61537;BME280;48695;53.480;-6.300;2023-08-01T04:10:01;99507.75;;;15.11;76.83
61537;BME280;48695;53.480;-6.300;2023-08-01T04:12:27;99499.75;;;15.13;77.14
61537;BME280;48695;53.480;-6.300;2023-08-01T04:14:52;99498.16;;;15.10;77.09
61537;BME280;48695;53.480;-6.300;2023-08-01T04:17:17;99512.81;;;15.14;77.11
61537;BME280;48695;53.480;-6.300;2023-08-01T04:19:43;99504.19;;;15.12;77.07
61537;BME280;48695;53.480;-6.300;2023-08-01T04:22:08;99509.25;;;15.15;76.82
61537;BME280;48695;53.480;-6.300;2023-08-01T04:24:34;99513.59;;;15.16;76.63
61537;BME280;48695;53.480;-6.300;2023-08-01T04:26:59;99518.00;;;15.16;76.50
61537;BME280;48695;53.480;-6.300;2023-08-01T04:29:25;99525.00;;;15.15;76.28
61537;BME280;48695;53.480;-6.300;2023-08-01T04:31:50;99525.22;;;15.12;76.49
61537;BME280;48695;53.480;-6.300;2023-08-01T04:34:15;99518.81;;;15.02;76.57
61537;BME280;48695;53.480;-6.300;2023-08-01T04:36:41;99523.72;;;15.08;76.32
61537;BME280;48695;53.480;-6.300;2023-08-01T04:39:06;99526.44;;;15.07;76.64
61537;BME280;48695;53.480;-6.300;2023-08-01T04:41:32;99534.41;;;15.05;76.20
61537;BME280;48695;53.480;-6.300;2023-08-01T04:43:57;99532.91;;;15.01;76.19
61537;BME280;48695;53.480;-6.300;2023-08-01T04:46:22;99520.69;;;15.00;76.30
61537;BME280;48695;53.480;-6.300;2023-08-01T04:48:48;99520.97;;;14.95;76.50
61537;BME280;48695;53.480;-6.300;2023-08-01T04:51:13;99529.72;;;14.96;76.47
61537;BME280;48695;53.480;-6.300;2023-08-01T04:53:39;99529.88;;;14.93;76.45
61537;BME280;48695;53.480;-6.300;2023-08-01T04:56:04;99535.13;;;14.93;76.21
61537;BME280;48695;53.480;-6.300;2023-08-01T04:58:30;99539.66;;;14.91;76.25
61537;BME280;48695;53.480;-6.300;2023-08-01T05:00:55;99538.88;;;14.89;76.49
61537;BME280;48695;53.480;-6.300;2023-08-01T05:03:21;99543.41;;;14.87;76.65
61537;BME280;48695;53.480;-6.300;2023-08-01T05:05:46;99547.72;;;14.88;77.07
61537;BME280;48695;53.480;-6.300;2023-08-01T05:08:12;99539.41;;;14.79;77.11
61537;BME280;48695;53.480;-6.300;2023-08-01T05:10:37;99552.88;;;14.89;77.19
61537;BME280;48695;53.480;-6.300;2023-08-01T05:13:02;99556.16;;;14.93;77.48
61537;BME280;48695;53.480;-6.300;2023-08-01T05:15:28;99554.22;;;14.96;77.84
61537;BME280;48695;53.480;-6.300;2023-08-01T05:17:53;99556.63;;;14.99;77.88
61537;BME280;48695;53.480;-6.300;2023-08-01T05:20:19;99553.09;;;15.00;77.81
61537;BME280;48695;53.480;-6.300;2023-08-01T05:22:44;99560.88;;;15.02;77.97
61537;BME280;48695;53.480;-6.300;2023-08-01T05:25:10;99555.25;;;15.08;77.91
61537;BME280;48695;53.480;-6.300;2023-08-01T05:27:35;99562.03;;;15.12;77.83
61537;BME280;48695;53.480;-6.300;2023-08-01T05:30:01;99561.84;;;15.15;78.12
61537;BME280;48695;53.480;-6.300;2023-08-01T05:32:26;99563.34;;;15.19;77.91
61537;BME280;48695;53.480;-6.300;2023-08-01T05:34:51;99567.59;;;15.22;78.27
61537;BME280;48695;53.480;-6.300;2023-08-01T05:37:17;99558.59;;;15.26;78.15
61537;BME280;48695;53.480;-6.300;2023-08-01T05:39:42;99565.31;;;15.30;78.06
61537;BME280;48695;53.480;-6.300;2023-08-01T05:42:08;99566.00;;;15.34;77.70
61537;BME280;48695;53.480;-6.300;2023-08-01T05:44:34;99549.75;;;15.27;78.23
61537;BME280;48695;53.480;-6.300;2023-08-01T05:47:00;99565.63;;;15.40;78.21
61537;BME280;48695;53.480;-6.300;2023-08-01T05:49:25;99566.28;;;15.43;78.20
61537;BME280;48695;53.480;-6.300;2023-08-01T05:51:51;99559.06;;;15.47;77.91
61537;BME280;48695;53.480;-6.300;2023-08-01T05:54:16;99560.66;;;15.49;77.83
61537;BME280;48695;53.480;-6.300;2023-08-01T05:56:42;99547.50;;;15.49;77.85
61537;BME280;48695;53.480;-6.300;2023-08-01T05:59:07;99548.91;;;15.55;77.65
61537;BME280;48695;53.480;-6.300;2023-08-01T06:01:32;99543.00;;;15.51;77.40
61537;BME280;48695;53.480;-6.300;2023-08-01T06:03:58;99548.72;;;15.58;77.83
61537;BME280;48695;53.480;-6.300;2023-08-01T06:06:23;99544.97;;;15.62;77.50
61537;BME280;48695;53.480;-6.300;2023-08-01T06:08:49;99541.41;;;15.63;77.32
61537;BME280;48695;53.480;-6.300;2023-08-01T06:11:14;99529.00;;;15.65;78.00
61537;BME280;48695;53.480;-6.300;2023-08-01T06:13:40;99542.94;;;15.67;77.23
61537;BME280;48695;53.480;-6.300;2023-08-01T06:16:05;99535.59;;;15.72;77.88
61537;BME280;48695;53.480;-6.300;2023-08-01T06:18:31;99526.75;;;15.73;77.46
61537;BME280;48695;53.480;-6.300;2023-08-01T06:20:56;99535.38;;;15.75;77.47
61537;BME280;48695;53.480;-6.300;2023-08-01T06:23:22;99537.09;;;15.76;77.55
61537;BME280;48695;53.480;-6.300;2023-08-01T06:25:47;99547.22;;;15.82;77.34
61537;BME280;48695;53.480;-6.300;2023-08-01T06:28:13;99538.38;;;15.83;77.81
61537;BME280;48695;53.480;-6.300;2023-08-01T06:30:38;99539.91;;;15.88;77.80
61537;BME280;48695;53.480;-6.300;2023-08-01T06:33:03;99536.69;;;15.82;77.07
61537;BME280;48695;53.480;-6.300;2023-08-01T06:35:29;99552.66;;;15.94;77.32
61537;BME280;48695;53.480;-6.300;2023-08-01T06:37:54;99551.59;;;15.96;77.35
61537;BME280;48695;53.480;-6.300;2023-08-01T06:40:20;99552.38;;;15.98;77.16
61537;BME280;48695;53.480;-6.300;2023-08-01T06:42:45;99543.63;;;15.98;77.39
61537;BME280;48695;53.480;-6.300;2023-08-01T06:45:10;99553.66;;;16.05;77.55
61537;BME280;48695;53.480;-6.300;2023-08-01T06:47:36;99547.56;;;16.05;77.30
61537;BME280;48695;53.480;-6.300;2023-08-01T06:50:01;99542.09;;;16.08;77.28
61537;BME280;48695;53.480;-6.300;2023-08-01T06:52:27;99550.75;;;16.10;76.92
61537;BME280;48695;53.480;-6.300;2023-08-01T06:54:53;99553.19;;;16.13;77.37
61537;BME280;48695;53.480;-6.300;2023-08-01T06:57:18;99563.50;;;16.16;77.46
61537;BME280;48695;53.480;-6.300;2023-08-01T06:59:43;99559.97;;;16.17;77.07
61537;BME280;48695;53.480;-6.300;2023-08-01T07:02:09;99553.75;;;16.18;76.81
61537;BME280;48695;53.480;-6.300;2023-08-01T07:04:34;99544.88;;;16.19;76.57
61537;BME280;48695;53.480;-6.300;2023-08-01T07:07:00;99546.56;;;16.20;76.65
61537;BME280;48695;53.480;-6.300;2023-08-01T07:09:25;99551.84;;;16.20;77.02
61537;BME280;48695;53.480;-6.300;2023-08-01T07:11:50;99510.34;;;15.97;76.70
61537;BME280;48695;53.480;-6.300;2023-08-01T07:14:16;99543.53;;;16.26;77.53
61537;BME280;48695;53.480;-6.300;2023-08-01T07:16:41;99560.94;;;16.29;77.08
61537;BME280;48695;53.480;-6.300;2023-08-01T07:19:07;99548.50;;;16.31;76.93
61537;BME280;48695;53.480;-6.300;2023-08-01T07:21:32;99555.47;;;16.32;76.91
61537;BME280;48695;53.480;-6.300;2023-08-01T07:23:57;99561.38;;;16.35;76.87
61537;BME280;48695;53.480;-6.300;2023-08-01T07:26:23;99556.00;;;16.37;76.64
61537;BME280;48695;53.480;-6.300;2023-08-01T07:28:48;99555.81;;;16.40;77.00
61537;BME280;48695;53.480;-6.300;2023-08-01T07:31:14;99561.00;;;16.42;76.28
61537;BME280;48695;53.480;-6.300;2023-08-01T07:33:39;99567.03;;;16.44;76.85
61537;BME280;48695;53.480;-6.300;2023-08-01T07:36:05;99557.88;;;16.49;76.68
61537;BME280;48695;53.480;-6.300;2023-08-01T07:38:30;99569.06;;;16.53;76.80
61537;BME280;48695;53.480;-6.300;2023-08-01T07:40:57;99575.72;;;16.58;77.00
61537;BME280;48695;53.480;-6.300;2023-08-01T07:43:26;99573.81;;;16.60;76.66
61537;BME280;48695;53.480;-6.300;2023-08-01T07:45:56;99567.28;;;16.66;76.88
61537;BME280;48695;53.480;-6.300;2023-08-01T07:48:21;99576.53;;;16.73;77.02
61537;BME280;48695;53.480;-6.300;2023-08-01T07:50:46;99570.84;;;16.79;76.60
61537;BME280;48695;53.480;-6.300;2023-08-01T07:53:12;99578.88;;;16.91;77.32
61537;BME280;48695;53.480;-6.300;2023-08-01T07:55:37;99579.22;;;16.99;77.06
61537;BME280;48695;53.480;-6.300;2023-08-01T07:58:02;99565.41;;;17.08;77.02
61537;BME280;48695;53.480;-6.300;2023-08-01T08:00:28;99577.25;;;17.15;76.83
61537;BME280;48695;53.480;-6.300;2023-08-01T08:02:53;99573.47;;;17.19;75.66
61537;BME280;48695;53.480;-6.300;2023-08-01T08:05:19;99576.63;;;17.24;76.48
61537;BME280;48695;53.480;-6.300;2023-08-01T08:07:45;99557.94;;;17.27;75.75
61537;BME280;48695;53.480;-6.300;2023-08-01T08:10:10;99570.69;;;17.33;75.72
61537;BME280;48695;53.480;-6.300;2023-08-01T08:12:36;99567.84;;;17.36;75.17
61537;BME280;48695;53.480;-6.300;2023-08-01T08:15:01;99562.06;;;17.31;74.91
61537;BME280;48695;53.480;-6.300;2023-08-01T08:17:26;99566.50;;;17.44;75.34
61537;BME280;48695;53.480;-6.300;2023-08-01T08:19:52;99582.09;;;17.47;74.77
61537;BME280;48695;53.480;-6.300;2023-08-01T08:22:17;99569.66;;;17.49;75.24
61537;BME280;48695;53.480;-6.300;2023-08-01T08:24:43;99572.84;;;17.54;74.72
61537;BME280;48695;53.480;-6.300;2023-08-01T08:27:08;99572.59;;;17.57;74.71
61537;BME280;48695;53.480;-6.300;2023-08-01T08:29:34;99573.34;;;17.59;74.13
61537;BME280;48695;53.480;-6.300;2023-08-01T08:31:59;99572.47;;;17.58;74.46
61537;BME280;48695;53.480;-6.300;2023-08-01T08:34:24;99566.88;;;17.63;74.53
61537;BME280;48695;53.480;-6.300;2023-08-01T08:36:50;99549.59;;;17.59;74.77
61537;BME280;48695;53.480;-6.300;2023-08-01T08:39:16;99548.56;;;17.74;74.46
61537;BME280;48695;53.480;-6.300;2023-08-01T08:41:52;99539.94;;;17.83;74.49
61537;BME280;48695;53.480;-6.300;2023-08-01T08:44:19;99552.22;;;17.84;73.70
61537;BME280;48695;53.480;-6.300;2023-08-01T08:46:50;99547.22;;;17.93;74.67
61537;BME280;48695;53.480;-6.300;2023-08-01T08:49:16;99531.63;;;17.89;74.31
61537;BME280;48695;53.480;-6.300;2023-08-01T08:51:43;99535.03;;;18.03;74.14
61537;BME280;48695;53.480;-6.300;2023-08-01T08:54:10;99532.41;;;18.03;73.23
61537;BME280;48695;53.480;-6.300;2023-08-01T08:56:37;99521.38;;;18.09;73.27
61537;BME280;48695;53.480;-6.300;2023-08-01T08:59:03;99530.66;;;18.14;73.74
61537;BME280;48695;53.480;-6.300;2023-08-01T09:01:29;99538.03;;;18.22;73.45
61537;BME280;48695;53.480;-6.300;2023-08-01T09:03:56;99537.38;;;18.31;73.42
61537;BME280;48695;53.480;-6.300;2023-08-01T09:06:29;99536.47;;;18.44;73.36
61537;BME280;48695;53.480;-6.300;2023-08-01T09:09:13;99537.47;;;18.54;74.08
61537;BME280;48695;53.480;-6.300;2023-08-01T09:11:42;99537.00;;;18.60;73.16
61537;BME280;48695;53.480;-6.300;2023-08-01T09:14:09;99529.56;;;18.65;72.15
61537;BME280;48695;53.480;-6.300;2023-08-01T09:16:35;99525.44;;;18.74;72.40
61537;BME280;48695;53.480;-6.300;2023-08-01T09:19:00;99514.88;;;18.85;72.50
61537;BME280;48695;53.480;-6.300;2023-08-01T09:21:26;99523.47;;;19.00;72.43
61537;BME280;48695;53.480;-6.300;2023-08-01T09:23:52;99524.44;;;19.10;71.65
61537;BME280;48695;53.480;-6.300;2023-08-01T09:26:19;99518.69;;;19.16;71.38
61537;BME280;48695;53.480;-6.300;2023-08-01T09:28:55;99519.41;;;19.40;72.94
61537;BME280;48695;53.480;-6.300;2023-08-01T09:31:32;99523.28;;;19.59;74.11
61537;BME280;48695;53.480;-6.300;2023-08-01T09:33:59;99524.75;;;19.74;70.98
61537;BME280;48695;53.480;-6.300;2023-08-01T09:36:24;99535.31;;;19.96;70.13
61537;BME280;48695;53.480;-6.300;2023-08-01T09:38:50;99532.75;;;20.17;70.55
61537;BME280;48695;53.480;-6.300;2023-08-01T09:41:20;99535.19;;;20.41;71.19
61537;BME280;48695;53.480;-6.300;2023-08-01T09:43:46;99533.41;;;20.53;69.30
61537;BME280;48695;53.480;-6.300;2023-08-01T09:46:13;99542.13;;;20.65;69.03
61537;BME280;48695;53.480;-6.300;2023-08-01T09:48:38;99520.66;;;20.68;68.14
61537;BME280;48695;53.480;-6.300;2023-08-01T09:53:31;99532.84;;;20.91;68.22
61537;BME280;48695;53.480;-6.300;2023-08-01T09:56:00;99537.97;;;21.04;68.36
61537;BME280;48695;53.480;-6.300;2023-08-01T09:58:32;99544.47;;;21.21;69.09
61537;BME280;48695;53.480;-6.300;2023-08-01T10:00:58;99542.03;;;21.29;67.35
61537;BME280;48695;53.480;-6.300;2023-08-01T10:03:26;99535.69;;;21.41;67.46
61537;BME280;48695;53.480;-6.300;2023-08-01T10:05:52;99535.44;;;21.44;67.33
61537;BME280;48695;53.480;-6.300;2023-08-01T10:08:20;99526.78;;;21.52;67.31
61537;BME280;48695;53.480;-6.300;2023-08-01T10:10:47;99531.00;;;21.64;68.10
61537;BME280;48695;53.480;-6.300;2023-08-01T10:13:13;99519.06;;;21.80;67.41
61537;BME280;48695;53.480;-6.300;2023-08-01T10:15:39;99522.19;;;22.04;66.44
61537;BME280;48695;53.480;-6.300;2023-08-01T10:18:04;99528.72;;;22.21;66.20
61537;BME280;48695;53.480;-6.300;2023-08-01T10:20:30;99526.59;;;22.34;65.65
61537;BME280;48695;53.480;-6.300;2023-08-01T10:22:56;99531.78;;;22.45;66.21
61537;BME280;48695;53.480;-6.300;2023-08-01T10:25:23;99541.31;;;22.58;65.70
61537;BME280;48695;53.480;-6.300;2023-08-01T10:28:05;99530.69;;;22.77;68.59
61537;BME280;48695;53.480;-6.300;2023-08-01T10:30:30;99537.00;;;22.76;64.73
61537;BME280;48695;53.480;-6.300;2023-08-01T10:32:57;99530.38;;;22.80;63.04
61537;BME280;48695;53.480;-6.300;2023-08-01T10:38:04;99503.75;;;22.80;67.06
61537;BME280;48695;53.480;-6.300;2023-08-01T10:40:42;99520.59;;;22.90;64.65
61537;BME280;48695;53.480;-6.300;2023-08-01T10:43:20;99527.59;;;23.01;68.14
61537;BME280;48695;53.480;-6.300;2023-08-01T10:45:46;99528.72;;;22.98;65.18
61537;BME280;48695;53.480;-6.300;2023-08-01T10:48:12;99523.81;;;23.03;65.12
61537;BME280;48695;53.480;-6.300;2023-08-01T10:50:38;99529.28;;;23.12;64.07
61537;BME280;48695;53.480;-6.300;2023-08-01T10:53:06;99527.41;;;23.22;63.56
61537;BME280;48695;53.480;-6.300;2023-08-01T10:58:05;99535.94;;;23.25;62.79
61537;BME280;48695;53.480;-6.300;2023-08-01T11:00:30;99535.94;;;23.25;61.27
61537;BME280;48695;53.480;-6.300;2023-08-01T11:02:56;99535.41;;;23.22;62.61
61537;BME280;48695;53.480;-6.300;2023-08-01T11:05:21;99537.78;;;23.15;62.02
61537;BME280;48695;53.480;-6.300;2023-08-01T11:07:56;99534.44;;;23.13;63.00
61537;BME280;48695;53.480;-6.300;2023-08-01T11:10:22;99536.56;;;23.00;61.38
61537;BME280;48695;53.480;-6.300;2023-08-01T11:12:47;99549.47;;;22.95;61.35
61537;BME280;48695;53.480;-6.300;2023-08-01T11:15:14;99545.53;;;22.89;63.03
61537;BME280;48695;53.480;-6.300;2023-08-01T11:17:46;99540.75;;;22.83;61.30
61537;BME280;48695;53.480;-6.300;2023-08-01T11:20:12;99527.59;;;22.72;60.78
61537;BME280;48695;53.480;-6.300;2023-08-01T11:22:49;99528.56;;;22.80;63.90
61537;BME280;48695;53.480;-6.300;2023-08-01T11:25:15;99531.25;;;22.71;61.67
61537;BME280;48695;53.480;-6.300;2023-08-01T11:27:40;99534.88;;;22.70;61.80
61537;BME280;48695;53.480;-6.300;2023-08-01T11:30:06;99531.38;;;22.69;61.58
61537;BME280;48695;53.480;-6.300;2023-08-01T11:32:36;99534.59;;;22.73;63.48
61537;BME280;48695;53.480;-6.300;2023-08-01T11:35:02;99536.00;;;22.77;60.60
61537;BME280;48695;53.480;-6.300;2023-08-01T11:37:29;99535.44;;;22.83;61.77
61537;BME280;48695;53.480;-6.300;2023-08-01T11:39:55;99522.31;;;22.91;61.67
61537;BME280;48695;53.480;-6.300;2023-08-01T11:42:21;99521.72;;;22.97;61.04
61537;BME280;48695;53.480;-6.300;2023-08-01T11:44:47;99524.78;;;23.02;61.76
61537;BME280;48695;53.480;-6.300;2023-08-01T11:47:16;99525.88;;;23.10;61.94
61537;BME280;48695;53.480;-6.300;2023-08-01T11:49:46;99522.22;;;23.20;61.28
61537;BME280;48695;53.480;-6.300;2023-08-01T11:52:24;99518.84;;;23.28;63.26
61537;BME280;48695;53.480;-6.300;2023-08-01T11:54:51;99497.84;;;23.15;60.55
61537;BME280;48695;53.480;-6.300;2023-08-01T11:57:16;99516.59;;;23.33;61.07
61537;BME280;48695;53.480;-6.300;2023-08-01T11:59:55;99506.03;;;23.41;62.59
61537;BME280;48695;53.480;-6.300;2023-08-01T12:02:22;99490.94;;;23.32;60.88
61537;BME280;48695;53.480;-6.300;2023-08-01T12:04:48;99497.59;;;23.46;61.68
61537;BME280;48695;53.480;-6.300;2023-08-01T12:07:14;99476.44;;;23.44;61.76
61537;BME280;48695;53.480;-6.300;2023-08-01T12:09:40;99483.63;;;23.62;61.80
61537;BME280;48695;53.480;-6.300;2023-08-01T12:12:05;99478.84;;;23.75;62.09
61537;BME280;48695;53.480;-6.300;2023-08-01T12:14:31;99483.34;;;23.92;61.61
61537;BME280;48695;53.480;-6.300;2023-08-01T12:16:57;99476.06;;;24.12;59.65
61537;BME280;48695;53.480;-6.300;2023-08-01T12:19:22;99469.59;;;24.32;61.12
61537;BME280;48695;53.480;-6.300;2023-08-01T12:21:48;99475.63;;;24.52;59.58
61537;BME280;48695;53.480;-6.300;2023-08-01T12:24:14;99454.44;;;24.69;60.62
61537;BME280;48695;53.480;-6.300;2023-08-01T12:26:39;99460.00;;;24.83;60.83
61537;BME280;48695;53.480;-6.300;2023-08-01T12:29:05;99440.56;;;24.91;59.19
61537;BME280;48695;53.480;-6.300;2023-08-01T12:31:30;99463.09;;;25.15;59.78
61537;BME280;48695;53.480;-6.300;2023-08-01T12:33:56;99467.69;;;25.30;59.42
61537;BME280;48695;53.480;-6.300;2023-08-01T12:36:22;99450.91;;;25.46;60.06
61537;BME280;48695;53.480;-6.300;2023-08-01T12:38:47;99449.28;;;25.61;58.27
61537;BME280;48695;53.480;-6.300;2023-08-01T12:41:13;99448.81;;;25.74;59.36
61537;BME280;48695;53.480;-6.300;2023-08-01T12:43:38;99441.84;;;25.90;59.54
61537;BME280;48695;53.480;-6.300;2023-08-01T12:46:04;99443.41;;;26.08;59.91
61537;BME280;48695;53.480;-6.300;2023-08-01T12:48:29;99436.22;;;26.25;59.29
61537;BME280;48695;53.480;-6.300;2023-08-01T12:50:55;99433.06;;;26.38;58.75
61537;BME280;48695;53.480;-6.300;2023-08-01T12:53:21;99422.41;;;26.46;57.59